sensor_id;sensor_type;location;lat;lon;timestamp;temperature;humidity
19389;DHT22;9830;41.876;23.474;2023-04-03T00:01:16;2.10;99.90
19389;DHT22;9830;41.876;23.474;2023-04-03T00:03:42;2.00;99.90
19389;DHT22;9830;41.876;23.474;2023-04-03T00:06:09;2.00;99.90
19389;DHT22;9830;41.876;23.474;2023-04-03T00:08:37;1.90;99.90
19389;DHT22;9830;41.876;23.474;2023-04-03T00:11:04;1.80;99.90
19389;DHT22;9830;41.876;23.474;2023-04-03T00:13:31;1.90;99.90
19389;DHT22;9830;41.876;23.474;2023-04-03T00:15:57;1.80;99.90
19389;DHT22;9830;41.876;23.474;2023-04-03T00:18:22;1.80;99.90
19389;DHT22;9830;41.876;23.474;2023-04-03T00:20:49;1.80;99.90
19389;DHT22;9830;41.876;23.474;2023-04-03T00:23:15;1.80;99.90
19389;DHT22;9830;41.876;23.474;2023-04-03T00:25:41;1.80;99.90
19389;DHT22;9830;41.876;23.474;2023-04-03T00:28:07;1.80;99.90
19389;DHT22;9830;41.876;23.474;2023-04-03T00:30:32;1.70;99.90
19389;DHT22;9830;41.876;23.474;2023-04-03T00:32:58;1.60;99.90
19389;DHT22;9830;41.876;23.474;2023-04-03T00:35:24;1.60;99.90
19389;DHT22;9830;41.876;23.474;2023-04-03T00:37:55;1.50;99.90
19389;DHT22;9830;41.876;23.474;2023-04-03T00:40:23;1.60;99.90
19389;DHT22;9830;41.876;23.474;2023-04-03T00:42:51;1.50;99.90
19389;DHT22;9830;41.876;23.474;2023-04-03T00:45:37;1.40;99.90
19389;DHT22;9830;41.876;23.474;2023-04-03T00:48:06;1.50;99.90
19389;DHT22;9830;41.876;23.474;2023-04-03T00:50:34;1.50;99.90
19389;DHT22;9830;41.876;23.474;2023-04-03T00:53:01;1.50;99.90
19389;DHT22;9830;41.876;23.474;2023-04-03T00:55:27;1.40;99.90
19389;DHT22;9830;41.876;23.474;2023-04-03T00:57:54;1.20;99.90
19389;DHT22;9830;41.876;23.474;2023-04-03T01:00:22;1.30;99.90
19389;DHT22;9830;41.876;23.474;2023-04-03T01:02:49;1.30;99.90
19389;DHT22;9830;41.876;23.474;2023-04-03T01:05:16;1.20;99.90
19389;DHT22;9830;41.876;23.474;2023-04-03T01:07:41;1.30;99.90
19389;DHT22;9830;41.876;23.474;2023-04-03T01:10:10;1.20;99.90
19389;DHT22;9830;41.876;23.474;2023-04-03T01:12:41;1.20;99.90
19389;DHT22;9830;41.876;23.474;2023-04-03T01:25:48;1.30;99.90
19389;DHT22;9830;41.876;23.474;2023-04-03T01:28:35;1.40;99.90
19389;DHT22;9830;41.876;23.474;2023-04-03T01:33:35;1.30;99.90
19389;DHT22;9830;41.876;23.474;2023-04-03T01:36:02;1.30;99.90
19389;DHT22;9830;41.876;23.474;2023-04-03T01:38:28;1.40;99.90
19389;DHT22;9830;41.876;23.474;2023-04-03T01:40:54;1.50;99.90
19389;DHT22;9830;41.876;23.474;2023-04-03T01:43:20;1.50;99.90
19389;DHT22;9830;41.876;23.474;2023-04-03T01:45:45;1.60;99.90
19389;DHT22;9830;41.876;23.474;2023-04-03T01:48:12;1.60;99.90
19389;DHT22;9830;41.876;23.474;2023-04-03T01:50:38;1.50;99.90
19389;DHT22;9830;41.876;23.474;2023-04-03T01:53:04;1.40;99.90
19389;DHT22;9830;41.876;23.474;2023-04-03T01:55:30;1.40;99.90
19389;DHT22;9830;41.876;23.474;2023-04-03T01:57:55;1.40;99.90
19389;DHT22;9830;41.876;23.474;2023-04-03T02:00:21;1.40;99.90
19389;DHT22;9830;41.876;23.474;2023-04-03T02:02:47;1.40;99.90
19389;DHT22;9830;41.876;23.474;2023-04-03T02:05:12;1.30;99.90
19389;DHT22;9830;41.876;23.474;2023-04-03T02:07:38;1.20;99.90
19389;DHT22;9830;41.876;23.474;2023-04-03T02:10:04;1.40;99.90
19389;DHT22;9830;41.876;23.474;2023-04-03T02:12:30;1.40;99.90
19389;DHT22;9830;41.876;23.474;2023-04-03T02:14:56;1.40;99.90
19389;DHT22;9830;41.876;23.474;2023-04-03T02:17:21;1.30;99.90
19389;DHT22;9830;41.876;23.474;2023-04-03T02:19:47;1.20;99.90
19389;DHT22;9830;41.876;23.474;2023-04-03T02:22:13;1.00;99.90
19389;DHT22;9830;41.876;23.474;2023-04-03T02:24:39;1.10;99.90
19389;DHT22;9830;41.876;23.474;2023-04-03T02:27:05;1.20;99.90
19389;DHT22;9830;41.876;23.474;2023-04-03T02:29:31;1.20;99.90
19389;DHT22;9830;41.876;23.474;2023-04-03T02:31:57;1.20;99.90
19389;DHT22;9830;41.876;23.474;2023-04-03T02:34:23;1.20;99.90
19389;DHT22;9830;41.876;23.474;2023-04-03T02:36:48;1.10;99.90
19389;DHT22;9830;41.876;23.474;2023-04-03T02:39:14;1.10;99.90
19389;DHT22;9830;41.876;23.474;2023-04-03T02:41:40;1.10;99.90
19389;DHT22;9830;41.876;23.474;2023-04-03T02:44:06;1.10;99.90
19389;DHT22;9830;41.876;23.474;2023-04-03T02:46:33;1.10;99.90
19389;DHT22;9830;41.876;23.474;2023-04-03T02:48:59;1.10;99.90
19389;DHT22;9830;41.876;23.474;2023-04-03T02:51:25;1.00;99.90
19389;DHT22;9830;41.876;23.474;2023-04-03T02:53:50;0.90;99.90
19389;DHT22;9830;41.876;23.474;2023-04-03T02:56:17;0.80;99.90
19389;DHT22;9830;41.876;23.474;2023-04-03T02:58:44;0.80;99.90
19389;DHT22;9830;41.876;23.474;2023-04-03T03:01:10;0.70;99.90
19389;DHT22;9830;41.876;23.474;2023-04-03T03:03:36;0.60;99.90
19389;DHT22;9830;41.876;23.474;2023-04-03T03:06:14;0.60;99.90
19389;DHT22;9830;41.876;23.474;2023-04-03T03:08:40;0.60;99.90
19389;DHT22;9830;41.876;23.474;2023-04-03T03:11:06;0.60;99.90
19389;DHT22;9830;41.876;23.474;2023-04-03T03:13:33;0.60;99.90
19389;DHT22;9830;41.876;23.474;2023-04-03T03:15:59;0.50;99.90
19389;DHT22;9830;41.876;23.474;2023-04-03T03:18:25;0.60;99.90
19389;DHT22;9830;41.876;23.474;2023-04-03T03:20:52;0.60;99.90
19389;DHT22;9830;41.876;23.474;2023-04-03T03:23:18;0.60;99.90
19389;DHT22;9830;41.876;23.474;2023-04-03T03:25:44;0.60;99.90
19389;DHT22;9830;41.876;23.474;2023-04-03T03:28:09;0.60;99.90
19389;DHT22;9830;41.876;23.474;2023-04-03T03:30:35;0.70;99.90
19389;DHT22;9830;41.876;23.474;2023-04-03T03:33:01;0.70;99.90
19389;DHT22;9830;41.876;23.474;2023-04-03T03:35:27;0.70;99.90
19389;DHT22;9830;41.876;23.474;2023-04-03T03:37:52;0.70;99.90
19389;DHT22;9830;41.876;23.474;2023-04-03T03:40:18;0.70;99.90
19389;DHT22;9830;41.876;23.474;2023-04-03T03:42:44;0.30;99.90
19389;DHT22;9830;41.876;23.474;2023-04-03T03:45:10;0.30;99.90
19389;DHT22;9830;41.876;23.474;2023-04-03T03:47:36;0.20;99.90
19389;DHT22;9830;41.876;23.474;2023-04-03T03:50:02;0.20;99.90
19389;DHT22;9830;41.876;23.474;2023-04-03T03:52:27;0.30;99.90
19389;DHT22;9830;41.876;23.474;2023-04-03T03:54:53;0.30;99.90
19389;DHT22;9830;41.876;23.474;2023-04-03T03:57:19;0.20;99.90
19389;DHT22;9830;41.876;23.474;2023-04-03T03:59:45;0.20;99.90
19389;DHT22;9830;41.876;23.474;2023-04-03T04:02:12;0.20;99.90
19389;DHT22;9830;41.876;23.474;2023-04-03T04:04:38;0.30;99.90
19389;DHT22;9830;41.876;23.474;2023-04-03T04:07:04;0.30;99.90
19389;DHT22;9830;41.876;23.474;2023-04-03T04:09:30;0.30;99.90
19389;DHT22;9830;41.876;23.474;2023-04-03T04:11:55;0.30;99.90
19389;DHT22;9830;41.876;23.474;2023-04-03T04:14:21;0.30;99.90
19389;DHT22;9830;41.876;23.474;2023-04-03T04:16:49;0.30;99.90
19389;DHT22;9830;41.876;23.474;2023-04-03T04:19:15;0.30;99.90
19389;DHT22;9830;41.876;23.474;2023-04-03T04:21:41;0.40;99.90
19389;DHT22;9830;41.876;23.474;2023-04-03T04:24:08;0.50;99.90
19389;DHT22;9830;41.876;23.474;2023-04-03T04:26:34;0.70;99.90
19389;DHT22;9830;41.876;23.474;2023-04-03T04:29:00;0.80;99.90
19389;DHT22;9830;41.876;23.474;2023-04-03T04:31:25;0.90;99.90
19389;DHT22;9830;41.876;23.474;2023-04-03T04:33:52;0.90;99.90
19389;DHT22;9830;41.876;23.474;2023-04-03T04:36:18;0.90;99.90
19389;DHT22;9830;41.876;23.474;2023-04-03T04:38:43;0.90;99.90
19389;DHT22;9830;41.876;23.474;2023-04-03T04:41:09;1.00;99.90
19389;DHT22;9830;41.876;23.474;2023-04-03T04:43:35;1.00;99.90
19389;DHT22;9830;41.876;23.474;2023-04-03T04:46:07;1.00;99.90
19389;DHT22;9830;41.876;23.474;2023-04-03T04:48:34;1.10;99.90
19389;DHT22;9830;41.876;23.474;2023-04-03T04:51:00;1.20;99.90
19389;DHT22;9830;41.876;23.474;2023-04-03T04:53:26;1.60;99.90
19389;DHT22;9830;41.876;23.474;2023-04-03T04:55:52;1.70;99.90
19389;DHT22;9830;41.876;23.474;2023-04-03T04:58:18;1.80;99.90
19389;DHT22;9830;41.876;23.474;2023-04-03T05:00:44;2.10;99.90
19389;DHT22;9830;41.876;23.474;2023-04-03T05:03:10;1.90;99.90
19389;DHT22;9830;41.876;23.474;2023-04-03T05:05:36;1.80;99.90
19389;DHT22;9830;41.876;23.474;2023-04-03T05:08:03;1.80;99.90
19389;DHT22;9830;41.876;23.474;2023-04-03T05:10:29;1.70;99.90
19389;DHT22;9830;41.876;23.474;2023-04-03T05:12:55;1.70;99.90
19389;DHT22;9830;41.876;23.474;2023-04-03T05:15:20;1.90;99.90
19389;DHT22;9830;41.876;23.474;2023-04-03T05:17:46;1.90;99.90
19389;DHT22;9830;41.876;23.474;2023-04-03T05:20:12;2.00;99.90
19389;DHT22;9830;41.876;23.474;2023-04-03T05:22:38;2.00;99.90
19389;DHT22;9830;41.876;23.474;2023-04-03T05:25:05;2.10;99.90
19389;DHT22;9830;41.876;23.474;2023-04-03T05:27:31;2.20;99.90
19389;DHT22;9830;41.876;23.474;2023-04-03T05:29:57;2.30;99.90
19389;DHT22;9830;41.876;23.474;2023-04-03T05:32:23;2.30;99.90
19389;DHT22;9830;41.876;23.474;2023-04-03T05:34:50;2.40;99.90
19389;DHT22;9830;41.876;23.474;2023-04-03T05:37:17;2.70;99.90
19389;DHT22;9830;41.876;23.474;2023-04-03T05:39:43;2.70;99.90
19389;DHT22;9830;41.876;23.474;2023-04-03T05:42:09;2.80;99.90
19389;DHT22;9830;41.876;23.474;2023-04-03T05:44:37;3.30;99.90
19389;DHT22;9830;41.876;23.474;2023-04-03T05:47:02;3.40;99.90
19389;DHT22;9830;41.876;23.474;2023-04-03T05:49:28;3.30;99.90
19389;DHT22;9830;41.876;23.474;2023-04-03T05:51:54;3.60;99.90
19389;DHT22;9830;41.876;23.474;2023-04-03T05:54:26;3.60;99.90
19389;DHT22;9830;41.876;23.474;2023-04-03T05:56:52;3.50;99.90
19389;DHT22;9830;41.876;23.474;2023-04-03T05:59:20;3.30;99.90
19389;DHT22;9830;41.876;23.474;2023-04-03T06:01:46;3.30;99.90
19389;DHT22;9830;41.876;23.474;2023-04-03T06:04:13;3.20;99.90
19389;DHT22;9830;41.876;23.474;2023-04-03T06:07:00;3.30;99.90
19389;DHT22;9830;41.876;23.474;2023-04-03T06:09:27;3.30;99.90
19389;DHT22;9830;41.876;23.474;2023-04-03T06:11:54;3.30;99.90
19389;DHT22;9830;41.876;23.474;2023-04-03T06:14:21;3.40;99.90
19389;DHT22;9830;41.876;23.474;2023-04-03T06:16:47;3.60;99.90
19389;DHT22;9830;41.876;23.474;2023-04-03T06:19:12;3.90;99.90
19389;DHT22;9830;41.876;23.474;2023-04-03T06:21:38;3.90;99.90
19389;DHT22;9830;41.876;23.474;2023-04-03T06:24:05;4.00;99.90
19389;DHT22;9830;41.876;23.474;2023-04-03T06:26:31;3.90;99.90
19389;DHT22;9830;41.876;23.474;2023-04-03T06:28:57;3.80;99.90
19389;DHT22;9830;41.876;23.474;2023-04-03T06:31:23;3.70;99.90
19389;DHT22;9830;41.876;23.474;2023-04-03T06:33:49;3.60;99.90
19389;DHT22;9830;41.876;23.474;2023-04-03T06:36:17;3.60;99.90
19389;DHT22;9830;41.876;23.474;2023-04-03T06:38:45;3.60;99.90
19389;DHT22;9830;41.876;23.474;2023-04-03T06:41:11;3.60;99.90
19389;DHT22;9830;41.876;23.474;2023-04-03T06:43:37;3.70;99.90
19389;DHT22;9830;41.876;23.474;2023-04-03T06:46:02;3.60;99.90
19389;DHT22;9830;41.876;23.474;2023-04-03T06:48:29;3.80;99.90
19389;DHT22;9830;41.876;23.474;2023-04-03T06:50:54;3.90;99.90
19389;DHT22;9830;41.876;23.474;2023-04-03T06:53:21;3.80;99.90
19389;DHT22;9830;41.876;23.474;2023-04-03T06:55:47;4.00;99.90
19389;DHT22;9830;41.876;23.474;2023-04-03T06:58:13;4.10;99.90
19389;DHT22;9830;41.876;23.474;2023-04-03T07:00:40;4.20;99.90
19389;DHT22;9830;41.876;23.474;2023-04-03T07:03:06;4.20;99.90
19389;DHT22;9830;41.876;23.474;2023-04-03T07:05:32;4.30;99.90
19389;DHT22;9830;41.876;23.474;2023-04-03T07:07:58;4.50;99.90
19389;DHT22;9830;41.876;23.474;2023-04-03T07:10:23;4.50;99.90
19389;DHT22;9830;41.876;23.474;2023-04-03T07:12:49;4.70;99.90
19389;DHT22;9830;41.876;23.474;2023-04-03T07:15:15;4.90;99.90
19389;DHT22;9830;41.876;23.474;2023-04-03T07:17:41;5.10;99.90
19389;DHT22;9830;41.876;23.474;2023-04-03T07:20:07;5.20;99.90
19389;DHT22;9830;41.876;23.474;2023-04-03T07:22:33;5.30;99.90
19389;DHT22;9830;41.876;23.474;2023-04-03T07:24:59;5.40;99.90
19389;DHT22;9830;41.876;23.474;2023-04-03T07:27:26;5.70;99.90
19389;DHT22;9830;41.876;23.474;2023-04-03T07:29:52;5.80;99.90
19389;DHT22;9830;41.876;23.474;2023-04-03T07:32:18;5.90;99.90
19389;DHT22;9830;41.876;23.474;2023-04-03T07:34:44;6.20;99.90
19389;DHT22;9830;41.876;23.474;2023-04-03T07:37:10;6.50;99.90
19389;DHT22;9830;41.876;23.474;2023-04-03T07:39:36;6.80;99.90
19389;DHT22;9830;41.876;23.474;2023-04-03T07:42:02;7.40;99.90
19389;DHT22;9830;41.876;23.474;2023-04-03T07:44:28;7.60;99.90
19389;DHT22;9830;41.876;23.474;2023-04-03T07:46:54;7.90;99.90
19389;DHT22;9830;41.876;23.474;2023-04-03T07:49:25;7.70;99.90
19389;DHT22;9830;41.876;23.474;2023-04-03T07:51:51;7.50;99.90
19389;DHT22;9830;41.876;23.474;2023-04-03T07:54:18;7.50;99.90
19389;DHT22;9830;41.876;23.474;2023-04-03T07:56:44;7.50;99.90
19389;DHT22;9830;41.876;23.474;2023-04-03T07:59:10;7.60;99.90
19389;DHT22;9830;41.876;23.474;2023-04-03T08:01:37;7.60;99.90
19389;DHT22;9830;41.876;23.474;2023-04-03T08:04:02;7.60;99.90
19389;DHT22;9830;41.876;23.474;2023-04-03T08:06:28;7.80;99.90
19389;DHT22;9830;41.876;23.474;2023-04-03T08:08:59;7.70;99.90
19389;DHT22;9830;41.876;23.474;2023-04-03T08:11:24;7.80;99.90
19389;DHT22;9830;41.876;23.474;2023-04-03T08:13:51;7.60;99.90
19389;DHT22;9830;41.876;23.474;2023-04-03T08:16:20;7.60;99.90
19389;DHT22;9830;41.876;23.474;2023-04-03T08:18:46;7.90;99.90
19389;DHT22;9830;41.876;23.474;2023-04-03T08:21:12;7.70;99.90
19389;DHT22;9830;41.876;23.474;2023-04-03T08:23:39;7.50;99.90
19389;DHT22;9830;41.876;23.474;2023-04-03T08:26:15;7.40;99.90
19389;DHT22;9830;41.876;23.474;2023-04-03T08:28:41;7.40;99.90
19389;DHT22;9830;41.876;23.474;2023-04-03T08:31:13;7.50;99.90
19389;DHT22;9830;41.876;23.474;2023-04-03T08:33:39;7.40;99.90
19389;DHT22;9830;41.876;23.474;2023-04-03T08:36:07;7.40;99.90
19389;DHT22;9830;41.876;23.474;2023-04-03T08:38:33;7.30;99.90
19389;DHT22;9830;41.876;23.474;2023-04-03T08:41:11;7.30;99.90
19389;DHT22;9830;41.876;23.474;2023-04-03T08:49:24;7.30;99.90
19389;DHT22;9830;41.876;23.474;2023-04-03T08:51:52;7.40;99.90
19389;DHT22;9830;41.876;23.474;2023-04-03T08:54:29;7.60;99.90
19389;DHT22;9830;41.876;23.474;2023-04-03T08:56:55;7.90;99.90
19389;DHT22;9830;41.876;23.474;2023-04-03T08:59:28;7.70;99.90
19389;DHT22;9830;41.876;23.474;2023-04-03T09:01:57;7.60;99.90
19389;DHT22;9830;41.876;23.474;2023-04-03T09:04:25;7.60;99.90
19389;DHT22;9830;41.876;23.474;2023-04-03T09:07:02;7.80;99.90
19389;DHT22;9830;41.876;23.474;2023-04-03T09:09:40;7.80;99.90
19389;DHT22;9830;41.876;23.474;2023-04-03T09:12:26;7.80;99.90
19389;DHT22;9830;41.876;23.474;2023-04-03T09:15:16;8.20;99.90
19389;DHT22;9830;41.876;23.474;2023-04-03T09:20:49;8.00;99.90
19389;DHT22;9830;41.876;23.474;2023-04-03T09:26:36;8.20;99.90
19389;DHT22;9830;41.876;23.474;2023-04-03T09:29:04;8.10;99.90
19389;DHT22;9830;41.876;23.474;2023-04-03T09:31:43;7.90;99.90
19389;DHT22;9830;41.876;23.474;2023-04-03T09:34:27;7.80;99.90
19389;DHT22;9830;41.876;23.474;2023-04-03T09:36:56;7.80;99.90
19389;DHT22;9830;41.876;23.474;2023-04-03T09:39:27;7.80;99.90
19389;DHT22;9830;41.876;23.474;2023-04-03T09:42:05;8.00;99.90
19389;DHT22;9830;41.876;23.474;2023-04-03T09:44:36;7.90;99.90
19389;DHT22;9830;41.876;23.474;2023-04-03T09:47:29;7.80;99.90
19389;DHT22;9830;41.876;23.474;2023-04-03T09:52:45;7.50;99.90
19389;DHT22;9830;41.876;23.474;2023-04-03T09:57:42;7.30;99.90
19389;DHT22;9830;41.876;23.474;2023-04-03T10:00:38;7.30;99.90
19389;DHT22;9830;41.876;23.474;2023-04-03T10:03:05;7.20;99.90
19389;DHT22;9830;41.876;23.474;2023-04-03T10:05:40;7.20;99.90
19389;DHT22;9830;41.876;23.474;2023-04-03T10:10:38;7.00;99.90
19389;DHT22;9830;41.876;23.474;2023-04-03T10:13:11;7.10;99.90
19389;DHT22;9830;41.876;23.474;2023-04-03T10:15:47;7.20;99.90
19389;DHT22;9830;41.876;23.474;2023-04-03T10:18:51;7.20;99.90
19389;DHT22;9830;41.876;23.474;2023-04-03T10:21:29;7.20;99.90
19389;DHT22;9830;41.876;23.474;2023-04-03T10:24:13;7.20;99.90
19389;DHT22;9830;41.876;23.474;2023-04-03T10:27:02;7.30;99.90
19389;DHT22;9830;41.876;23.474;2023-04-03T10:32:43;7.20;99.90
19389;DHT22;9830;41.876;23.474;2023-04-03T10:45:57;6.90;99.90
19389;DHT22;9830;41.876;23.474;2023-04-03T10:51:47;6.80;99.90
19389;DHT22;9830;41.876;23.474;2023-04-03T10:57:08;6.90;99.90
19389;DHT22;9830;41.876;23.474;2023-04-03T11:02:33;7.10;99.90
19389;DHT22;9830;41.876;23.474;2023-04-03T11:05:36;7.30;99.90
19389;DHT22;9830;41.876;23.474;2023-04-03T11:08:07;7.30;99.90
19389;DHT22;9830;41.876;23.474;2023-04-03T11:10:42;7.30;99.90
19389;DHT22;9830;41.876;23.474;2023-04-03T11:13:19;7.30;99.90
19389;DHT22;9830;41.876;23.474;2023-04-03T11:15:46;7.30;99.90
19389;DHT22;9830;41.876;23.474;2023-04-03T11:18:29;7.20;99.90
19389;DHT22;9830;41.876;23.474;2023-04-03T11:21:05;7.20;99.90
19389;DHT22;9830;41.876;23.474;2023-04-03T11:23:39;7.20;99.90
19389;DHT22;9830;41.876;23.474;2023-04-03T11:26:11;7.20;99.90
19389;DHT22;9830;41.876;23.474;2023-04-03T11:28:38;7.20;99.90
19389;DHT22;9830;41.876;23.474;2023-04-03T11:34:00;7.20;99.90
19389;DHT22;9830;41.876;23.474;2023-04-03T11:36:31;7.20;99.90
19389;DHT22;9830;41.876;23.474;2023-04-03T11:39:04;7.10;99.90
19389;DHT22;9830;41.876;23.474;2023-04-03T11:41:33;7.10;99.90
19389;DHT22;9830;41.876;23.474;2023-04-03T11:44:06;7.20;99.90
19389;DHT22;9830;41.876;23.474;2023-04-03T12:16:27;7.40;99.90
19389;DHT22;9830;41.876;23.474;2023-04-03T12:35:13;7.40;99.90
19389;DHT22;9830;41.876;23.474;2023-04-03T12:46:07;7.30;99.90
19389;DHT22;9830;41.876;23.474;2023-04-03T12:48:58;7.30;99.90
19389;DHT22;9830;41.876;23.474;2023-04-03T12:51:43;7.20;99.90
19389;DHT22;9830;41.876;23.474;2023-04-03T12:56:41;7.20;99.90
19389;DHT22;9830;41.876;23.474;2023-04-03T13:01:40;7.00;99.90
19389;DHT22;9830;41.876;23.474;2023-04-03T13:04:06;6.90;99.90
19389;DHT22;9830;41.876;23.474;2023-04-03T13:06:39;6.80;99.90
19389;DHT22;9830;41.876;23.474;2023-04-03T13:09:06;6.80;99.90
19389;DHT22;9830;41.876;23.474;2023-04-03T13:11:43;6.70;99.90
19389;DHT22;9830;41.876;23.474;2023-04-03T13:14:21;6.70;99.90
19389;DHT22;9830;41.876;23.474;2023-04-03T13:17:14;6.60;99.90
19389;DHT22;9830;41.876;23.474;2023-04-03T13:19:40;6.50;99.90
19389;DHT22;9830;41.876;23.474;2023-04-03T13:22:36;6.50;99.90
19389;DHT22;9830;41.876;23.474;2023-04-03T13:25:08;6.40;99.90
19389;DHT22;9830;41.876;23.474;2023-04-03T13:27:35;6.20;99.90
19389;DHT22;9830;41.876;23.474;2023-04-03T13:30:02;6.30;99.90
19389;DHT22;9830;41.876;23.474;2023-04-03T13:32:30;6.30;99.90
19389;DHT22;9830;41.876;23.474;2023-04-03T13:34:57;6.20;99.90
19389;DHT22;9830;41.876;23.474;2023-04-03T13:37:26;6.20;99.90
19389;DHT22;9830;41.876;23.474;2023-04-03T13:42:32;6.10;99.90
19389;DHT22;9830;41.876;23.474;2023-04-03T13:45:23;6.10;99.90
19389;DHT22;9830;41.876;23.474;2023-04-03T13:47:52;6.00;99.90
19389;DHT22;9830;41.876;23.474;2023-04-03T13:50:26;6.00;99.90
19389;DHT22;9830;41.876;23.474;2023-04-03T13:52:59;5.90;99.90
19389;DHT22;9830;41.876;23.474;2023-04-03T13:55:34;5.90;99.90
19389;DHT22;9830;41.876;23.474;2023-04-03T13:58:25;5.90;99.90
19389;DHT22;9830;41.876;23.474;2023-04-03T14:01:01;5.90;99.90
19389;DHT22;9830;41.876;23.474;2023-04-03T14:03:40;5.90;99.90
19389;DHT22;9830;41.876;23.474;2023-04-03T14:06:08;5.90;99.90
19389;DHT22;9830;41.876;23.474;2023-04-03T14:08:35;6.00;99.90
19389;DHT22;9830;41.876;23.474;2023-04-03T14:11:01;6.00;99.90
19389;DHT22;9830;41.876;23.474;2023-04-03T14:13:31;5.90;99.90
19389;DHT22;9830;41.876;23.474;2023-04-03T14:15:57;6.00;99.90
19389;DHT22;9830;41.876;23.474;2023-04-03T14:18:23;5.90;99.90
19389;DHT22;9830;41.876;23.474;2023-04-03T14:20:49;5.90;99.90
19389;DHT22;9830;41.876;23.474;2023-04-03T14:23:15;5.90;99.90
19389;DHT22;9830;41.876;23.474;2023-04-03T14:25:42;5.80;99.90
19389;DHT22;9830;41.876;23.474;2023-04-03T14:28:20;5.80;99.90
19389;DHT22;9830;41.876;23.474;2023-04-03T14:30:48;5.70;99.90
19389;DHT22;9830;41.876;23.474;2023-04-03T14:33:20;5.60;99.90
19389;DHT22;9830;41.876;23.474;2023-04-03T14:35:46;5.70;99.90
19389;DHT22;9830;41.876;23.474;2023-04-03T14:38:24;5.70;99.90
19389;DHT22;9830;41.876;23.474;2023-04-03T14:40:51;5.70;99.90
19389;DHT22;9830;41.876;23.474;2023-04-03T14:43:17;5.70;99.90
19389;DHT22;9830;41.876;23.474;2023-04-03T14:45:44;5.60;99.90
19389;DHT22;9830;41.876;23.474;2023-04-03T14:48:23;5.60;99.90
19389;DHT22;9830;41.876;23.474;2023-04-03T14:50:50;5.60;99.90
19389;DHT22;9830;41.876;23.474;2023-04-03T14:53:16;5.60;99.90
19389;DHT22;9830;41.876;23.474;2023-04-03T14:55:48;5.60;99.90
19389;DHT22;9830;41.876;23.474;2023-04-03T14:58:19;5.50;99.90
19389;DHT22;9830;41.876;23.474;2023-04-03T15:00:46;5.50;99.90
19389;DHT22;9830;41.876;23.474;2023-04-03T15:03:17;5.50;99.90
19389;DHT22;9830;41.876;23.474;2023-04-03T15:05:44;5.40;99.90
19389;DHT22;9830;41.876;23.474;2023-04-03T15:08:25;5.30;99.90
19389;DHT22;9830;41.876;23.474;2023-04-03T15:10:52;5.40;99.90
19389;DHT22;9830;41.876;23.474;2023-04-03T15:13:19;5.40;99.90
19389;DHT22;9830;41.876;23.474;2023-04-03T15:15:45;5.30;99.90
19389;DHT22;9830;41.876;23.474;2023-04-03T15:18:23;5.30;99.90
19389;DHT22;9830;41.876;23.474;2023-04-03T15:20:51;5.30;99.90
19389;DHT22;9830;41.876;23.474;2023-04-03T15:23:17;5.30;99.90
19389;DHT22;9830;41.876;23.474;2023-04-03T15:25:44;5.20;99.90
19389;DHT22;9830;41.876;23.474;2023-04-03T15:28:26;5.30;99.90
19389;DHT22;9830;41.876;23.474;2023-04-03T15:30:53;5.20;99.90
19389;DHT22;9830;41.876;23.474;2023-04-03T15:33:19;5.20;99.90
19389;DHT22;9830;41.876;23.474;2023-04-03T15:35:45;5.20;99.90
19389;DHT22;9830;41.876;23.474;2023-04-03T15:38:11;5.20;99.90
19389;DHT22;9830;41.876;23.474;2023-04-03T15:40:37;5.20;99.90
19389;DHT22;9830;41.876;23.474;2023-04-03T15:43:04;5.10;99.90
19389;DHT22;9830;41.876;23.474;2023-04-03T15:45:30;5.00;99.90
19389;DHT22;9830;41.876;23.474;2023-04-03T15:47:56;5.00;99.90
19389;DHT22;9830;41.876;23.474;2023-04-03T15:50:22;5.00;99.90
19389;DHT22;9830;41.876;23.474;2023-04-03T15:52:49;5.00;99.90
19389;DHT22;9830;41.876;23.474;2023-04-03T15:55:21;5.00;99.90
19389;DHT22;9830;41.876;23.474;2023-04-03T15:57:46;5.00;99.90
19389;DHT22;9830;41.876;23.474;2023-04-03T16:00:13;5.00;99.90
19389;DHT22;9830;41.876;23.474;2023-04-03T16:02:39;5.00;99.90
19389;DHT22;9830;41.876;23.474;2023-04-03T16:05:06;5.00;99.90
19389;DHT22;9830;41.876;23.474;2023-04-03T16:07:31;4.90;99.90
19389;DHT22;9830;41.876;23.474;2023-04-03T16:09:57;4.80;99.90
19389;DHT22;9830;41.876;23.474;2023-04-03T16:12:23;4.70;99.90
19389;DHT22;9830;41.876;23.474;2023-04-03T16:14:49;4.60;99.90
19389;DHT22;9830;41.876;23.474;2023-04-03T16:17:15;4.60;99.90
19389;DHT22;9830;41.876;23.474;2023-04-03T16:19:41;4.50;99.90
19389;DHT22;9830;41.876;23.474;2023-04-03T16:22:06;4.50;99.90
19389;DHT22;9830;41.876;23.474;2023-04-03T16:24:32;4.50;99.90
19389;DHT22;9830;41.876;23.474;2023-04-03T16:26:58;4.30;99.90
19389;DHT22;9830;41.876;23.474;2023-04-03T16:29:24;4.30;99.90
19389;DHT22;9830;41.876;23.474;2023-04-03T16:31:50;4.30;99.90
19389;DHT22;9830;41.876;23.474;2023-04-03T16:34:17;4.20;99.90
19389;DHT22;9830;41.876;23.474;2023-04-03T16:36:42;4.20;99.90
19389;DHT22;9830;41.876;23.474;2023-04-03T16:39:08;4.20;99.90
19389;DHT22;9830;41.876;23.474;2023-04-03T16:41:35;4.10;99.90
19389;DHT22;9830;41.876;23.474;2023-04-03T16:44:01;4.10;99.90
19389;DHT22;9830;41.876;23.474;2023-04-03T16:46:27;4.10;99.90
19389;DHT22;9830;41.876;23.474;2023-04-03T16:48:53;4.10;99.90
19389;DHT22;9830;41.876;23.474;2023-04-03T16:51:19;4.00;99.90
19389;DHT22;9830;41.876;23.474;2023-04-03T16:53:45;4.00;99.90
19389;DHT22;9830;41.876;23.474;2023-04-03T16:56:11;4.00;99.90
19389;DHT22;9830;41.876;23.474;2023-04-03T16:58:36;3.90;99.90
19389;DHT22;9830;41.876;23.474;2023-04-03T17:01:13;3.90;99.90
19389;DHT22;9830;41.876;23.474;2023-04-03T17:03:39;3.90;99.90
19389;DHT22;9830;41.876;23.474;2023-04-03T17:06:05;3.90;99.90
19389;DHT22;9830;41.876;23.474;2023-04-03T17:08:31;3.80;99.90
19389;DHT22;9830;41.876;23.474;2023-04-03T17:10:56;3.80;99.90
19389;DHT22;9830;41.876;23.474;2023-04-03T17:13:22;3.80;99.90
19389;DHT22;9830;41.876;23.474;2023-04-03T17:15:48;3.80;99.90
19389;DHT22;9830;41.876;23.474;2023-04-03T17:18:14;3.70;99.90
19389;DHT22;9830;41.876;23.474;2023-04-03T17:20:40;3.70;99.90
19389;DHT22;9830;41.876;23.474;2023-04-03T17:23:06;3.70;99.90
19389;DHT22;9830;41.876;23.474;2023-04-03T17:25:31;3.70;99.90
19389;DHT22;9830;41.876;23.474;2023-04-03T17:27:57;3.70;99.90
19389;DHT22;9830;41.876;23.474;2023-04-03T17:30:23;3.70;99.90
19389;DHT22;9830;41.876;23.474;2023-04-03T17:32:48;3.70;99.90
19389;DHT22;9830;41.876;23.474;2023-04-03T17:35:14;3.70;99.90
19389;DHT22;9830;41.876;23.474;2023-04-03T17:37:40;3.60;99.90
19389;DHT22;9830;41.876;23.474;2023-04-03T17:40:06;3.60;99.90
19389;DHT22;9830;41.876;23.474;2023-04-03T17:42:32;3.50;99.90
19389;DHT22;9830;41.876;23.474;2023-04-03T17:44:58;3.50;99.90
19389;DHT22;9830;41.876;23.474;2023-04-03T17:47:25;3.40;99.90
19389;DHT22;9830;41.876;23.474;2023-04-03T17:49:51;3.40;99.90
19389;DHT22;9830;41.876;23.474;2023-04-03T17:52:16;3.40;99.90
19389;DHT22;9830;41.876;23.474;2023-04-03T17:54:42;3.30;99.90